sensor_id;sensor_type;location;lat;lon;timestamp;temperature;humidity
14893;DHT22;7538;53.626;9.906;2023-03-01T00:00:00;1.60;99.90
14893;DHT22;7538;53.626;9.906;2023-03-01T00:02:28;1.50;99.90
14893;DHT22;7538;53.626;9.906;2023-03-01T00:04:56;1.50;99.90
14893;DHT22;7538;53.626;9.906;2023-03-01T00:07:23;1.40;99.90
14893;DHT22;7538;53.626;9.906;2023-03-01T00:09:50;1.40;99.90
14893;DHT22;7538;53.626;9.906;2023-03-01T00:12:17;1.40;99.90
14893;DHT22;7538;53.626;9.906;2023-03-01T00:14:44;1.30;99.90
14893;DHT22;7538;53.626;9.906;2023-03-01T00:17:11;-2.40;99.90
14893;DHT22;7538;53.626;9.906;2023-03-01T00:19:37;1.30;99.90
14893;DHT22;7538;53.626;9.906;2023-03-01T00:22:06;1.30;99.90
14893;DHT22;7538;53.626;9.906;2023-03-01T00:24:32;1.20;99.90
14893;DHT22;7538;53.626;9.906;2023-03-01T00:26:59;1.20;99.90
14893;DHT22;7538;53.626;9.906;2023-03-01T00:29:26;1.20;99.90
14893;DHT22;7538;53.626;9.906;2023-03-01T00:31:53;1.20;99.90
14893;DHT22;7538;53.626;9.906;2023-03-01T00:34:19;1.20;99.90
14893;DHT22;7538;53.626;9.906;2023-03-01T00:36:46;1.10;99.90
14893;DHT22;7538;53.626;9.906;2023-03-01T00:39:15;1.10;99.90
14893;DHT22;7538;53.626;9.906;2023-03-01T00:41:42;1.10;99.90
14893;DHT22;7538;53.626;9.906;2023-03-01T00:44:10;1.10;99.90
14893;DHT22;7538;53.626;9.906;2023-03-01T00:46:37;1.10;99.90
14893;DHT22;7538;53.626;9.906;2023-03-01T00:49:04;1.10;99.90
14893;DHT22;7538;53.626;9.906;2023-03-01T00:51:31;1.10;99.90
14893;DHT22;7538;53.626;9.906;2023-03-01T00:53:59;1.00;99.90
14893;DHT22;7538;53.626;9.906;2023-03-01T00:56:28;1.00;99.90
14893;DHT22;7538;53.626;9.906;2023-03-01T00:58:55;1.00;99.90
14893;DHT22;7538;53.626;9.906;2023-03-01T01:01:24;1.00;99.90
14893;DHT22;7538;53.626;9.906;2023-03-01T01:03:53;1.00;99.90
14893;DHT22;7538;53.626;9.906;2023-03-01T01:06:23;1.00;99.90
14893;DHT22;7538;53.626;9.906;2023-03-01T01:08:51;0.90;99.90
14893;DHT22;7538;53.626;9.906;2023-03-01T01:11:19;0.90;99.90
14893;DHT22;7538;53.626;9.906;2023-03-01T01:13:47;0.90;99.90
14893;DHT22;7538;53.626;9.906;2023-03-01T01:16:15;0.90;99.90
14893;DHT22;7538;53.626;9.906;2023-03-01T01:18:42;0.80;99.90
14893;DHT22;7538;53.626;9.906;2023-03-01T01:21:11;0.80;99.90
14893;DHT22;7538;53.626;9.906;2023-03-01T01:23:39;0.80;99.90
14893;DHT22;7538;53.626;9.906;2023-03-01T01:26:07;0.80;99.90
14893;DHT22;7538;53.626;9.906;2023-03-01T01:28:34;0.80;99.90
14893;DHT22;7538;53.626;9.906;2023-03-01T01:31:03;0.80;99.90
14893;DHT22;7538;53.626;9.906;2023-03-01T01:33:30;0.80;99.90
14893;DHT22;7538;53.626;9.906;2023-03-01T01:35:57;0.80;99.90
14893;DHT22;7538;53.626;9.906;2023-03-01T01:38:24;0.80;99.90
14893;DHT22;7538;53.626;9.906;2023-03-01T01:40:51;0.80;99.90
14893;DHT22;7538;53.626;9.906;2023-03-01T01:43:20;0.70;99.90
14893;DHT22;7538;53.626;9.906;2023-03-01T01:45:48;0.80;99.90
14893;DHT22;7538;53.626;9.906;2023-03-01T01:48:20;0.70;99.90
14893;DHT22;7538;53.626;9.906;2023-03-01T01:50:54;0.70;99.90
14893;DHT22;7538;53.626;9.906;2023-03-01T01:53:22;0.70;99.90
14893;DHT22;7538;53.626;9.906;2023-03-01T01:55:53;0.70;99.90
14893;DHT22;7538;53.626;9.906;2023-03-01T01:58:24;0.70;99.90
14893;DHT22;7538;53.626;9.906;2023-03-01T02:00:53;0.70;99.90
14893;DHT22;7538;53.626;9.906;2023-03-01T02:03:26;0.60;99.90
14893;DHT22;7538;53.626;9.906;2023-03-01T02:05:58;0.60;99.90
14893;DHT22;7538;53.626;9.906;2023-03-01T02:08:33;0.60;99.90
14893;DHT22;7538;53.626;9.906;2023-03-01T02:11:01;0.60;99.90
14893;DHT22;7538;53.626;9.906;2023-03-01T02:13:30;0.60;99.90
14893;DHT22;7538;53.626;9.906;2023-03-01T02:15:57;0.60;99.90
14893;DHT22;7538;53.626;9.906;2023-03-01T02:18:25;0.60;99.90
14893;DHT22;7538;53.626;9.906;2023-03-01T02:21:05;0.60;99.90
14893;DHT22;7538;53.626;9.906;2023-03-01T02:23:34;0.60;99.90
14893;DHT22;7538;53.626;9.906;2023-03-01T02:26:05;0.60;99.90
14893;DHT22;7538;53.626;9.906;2023-03-01T02:28:36;0.60;99.90
14893;DHT22;7538;53.626;9.906;2023-03-01T02:31:06;0.60;99.90
14893;DHT22;7538;53.626;9.906;2023-03-01T02:33:51;0.60;99.90
14893;DHT22;7538;53.626;9.906;2023-03-01T02:36:21;0.70;99.90
14893;DHT22;7538;53.626;9.906;2023-03-01T02:38:48;0.70;99.90
14893;DHT22;7538;53.626;9.906;2023-03-01T02:41:17;0.70;99.90
14893;DHT22;7538;53.626;9.906;2023-03-01T02:43:47;0.70;99.90
14893;DHT22;7538;53.626;9.906;2023-03-01T02:46:16;0.70;99.90
14893;DHT22;7538;53.626;9.906;2023-03-01T02:48:46;0.70;99.90
14893;DHT22;7538;53.626;9.906;2023-03-01T02:51:22;0.70;99.90
14893;DHT22;7538;53.626;9.906;2023-03-01T02:53:59;0.70;99.90
14893;DHT22;7538;53.626;9.906;2023-03-01T02:56:29;0.70;99.90
14893;DHT22;7538;53.626;9.906;2023-03-01T02:58:58;0.70;99.90
14893;DHT22;7538;53.626;9.906;2023-03-01T03:01:27;0.70;99.90
14893;DHT22;7538;53.626;9.906;2023-03-01T03:04:06;0.60;99.90
14893;DHT22;7538;53.626;9.906;2023-03-01T03:06:33;0.60;99.90
14893;DHT22;7538;53.626;9.906;2023-03-01T03:09:04;0.50;99.90
14893;DHT22;7538;53.626;9.906;2023-03-01T03:11:30;0.50;99.90
14893;DHT22;7538;53.626;9.906;2023-03-01T03:13:59;0.50;99.90
14893;DHT22;7538;53.626;9.906;2023-03-01T03:16:26;0.50;99.90
14893;DHT22;7538;53.626;9.906;2023-03-01T03:18:52;0.50;99.90
14893;DHT22;7538;53.626;9.906;2023-03-01T03:21:19;0.40;99.90
14893;DHT22;7538;53.626;9.906;2023-03-01T03:23:46;0.50;99.90
14893;DHT22;7538;53.626;9.906;2023-03-01T03:26:13;0.50;99.90
14893;DHT22;7538;53.626;9.906;2023-03-01T03:28:40;0.40;99.90
14893;DHT22;7538;53.626;9.906;2023-03-01T03:31:08;0.40;99.90
14893;DHT22;7538;53.626;9.906;2023-03-01T03:33:35;0.40;99.90
14893;DHT22;7538;53.626;9.906;2023-03-01T03:36:03;0.50;99.90
14893;DHT22;7538;53.626;9.906;2023-03-01T03:38:30;0.50;99.90
14893;DHT22;7538;53.626;9.906;2023-03-01T03:41:01;2.10;99.90
14893;DHT22;7538;53.626;9.906;2023-03-01T03:43:30;0.60;99.90
14893;DHT22;7538;53.626;9.906;2023-03-01T03:45:57;0.70;99.90
14893;DHT22;7538;53.626;9.906;2023-03-01T03:48:25;0.70;99.90
14893;DHT22;7538;53.626;9.906;2023-03-01T03:50:54;0.70;99.90
14893;DHT22;7538;53.626;9.906;2023-03-01T03:53:22;0.70;99.90
14893;DHT22;7538;53.626;9.906;2023-03-01T03:55:50;0.80;99.90
14893;DHT22;7538;53.626;9.906;2023-03-01T03:58:17;0.90;99.90
14893;DHT22;7538;53.626;9.906;2023-03-01T04:00:45;0.90;99.90
14893;DHT22;7538;53.626;9.906;2023-03-01T04:03:14;0.90;99.90
14893;DHT22;7538;53.626;9.906;2023-03-01T04:05:42;0.90;99.90
14893;DHT22;7538;53.626;9.906;2023-03-01T04:08:09;1.00;99.90
14893;DHT22;7538;53.626;9.906;2023-03-01T04:10:38;1.00;99.90
14893;DHT22;7538;53.626;9.906;2023-03-01T04:13:06;1.00;99.90
14893;DHT22;7538;53.626;9.906;2023-03-01T04:15:33;1.10;99.90
14893;DHT22;7538;53.626;9.906;2023-03-01T04:18:00;1.10;99.90
14893;DHT22;7538;53.626;9.906;2023-03-01T04:20:30;1.10;99.90
14893;DHT22;7538;53.626;9.906;2023-03-01T04:23:02;1.10;99.90
14893;DHT22;7538;53.626;9.906;2023-03-01T04:25:37;1.20;99.90
14893;DHT22;7538;53.626;9.906;2023-03-01T04:28:04;1.20;99.90
14893;DHT22;7538;53.626;9.906;2023-03-01T04:30:31;1.20;99.90
14893;DHT22;7538;53.626;9.906;2023-03-01T04:33:02;1.20;99.90
14893;DHT22;7538;53.626;9.906;2023-03-01T04:35:29;1.20;99.90
14893;DHT22;7538;53.626;9.906;2023-03-01T04:37:56;1.20;99.90
14893;DHT22;7538;53.626;9.906;2023-03-01T04:40:25;1.20;99.90
14893;DHT22;7538;53.626;9.906;2023-03-01T04:42:52;1.20;99.90
14893;DHT22;7538;53.626;9.906;2023-03-01T04:45:18;1.30;99.90
14893;DHT22;7538;53.626;9.906;2023-03-01T04:47:46;1.30;99.90
14893;DHT22;7538;53.626;9.906;2023-03-01T04:50:15;1.30;99.90
14893;DHT22;7538;53.626;9.906;2023-03-01T04:52:43;1.50;99.90
14893;DHT22;7538;53.626;9.906;2023-03-01T04:55:11;1.50;99.90
14893;DHT22;7538;53.626;9.906;2023-03-01T04:57:39;1.60;99.90
14893;DHT22;7538;53.626;9.906;2023-03-01T05:00:09;1.70;99.90
14893;DHT22;7538;53.626;9.906;2023-03-01T05:02:50;1.70;99.90
14893;DHT22;7538;53.626;9.906;2023-03-01T05:05:20;1.70;99.90
14893;DHT22;7538;53.626;9.906;2023-03-01T05:07:51;1.80;99.90
14893;DHT22;7538;53.626;9.906;2023-03-01T05:10:18;1.80;99.90
14893;DHT22;7538;53.626;9.906;2023-03-01T05:12:46;1.90;99.90
14893;DHT22;7538;53.626;9.906;2023-03-01T05:15:13;1.90;99.90
14893;DHT22;7538;53.626;9.906;2023-03-01T05:17:40;2.00;99.90
14893;DHT22;7538;53.626;9.906;2023-03-01T05:20:08;4.80;99.90
14893;DHT22;7538;53.626;9.906;2023-03-01T05:22:36;2.10;99.90
14893;DHT22;7538;53.626;9.906;2023-03-01T05:25:05;2.10;99.90
14893;DHT22;7538;53.626;9.906;2023-03-01T05:27:32;2.20;99.90
14893;DHT22;7538;53.626;9.906;2023-03-01T05:30:00;2.20;99.90
14893;DHT22;7538;53.626;9.906;2023-03-01T05:32:39;2.20;99.90
14893;DHT22;7538;53.626;9.906;2023-03-01T05:35:07;2.20;99.90
14893;DHT22;7538;53.626;9.906;2023-03-01T05:37:33;2.20;99.90
14893;DHT22;7538;53.626;9.906;2023-03-01T05:40:01;2.20;99.90
14893;DHT22;7538;53.626;9.906;2023-03-01T05:42:29;2.30;99.90
14893;DHT22;7538;53.626;9.906;2023-03-01T05:44:55;2.30;99.90
14893;DHT22;7538;53.626;9.906;2023-03-01T05:47:24;2.30;99.90
14893;DHT22;7538;53.626;9.906;2023-03-01T05:49:50;2.40;99.90
14893;DHT22;7538;53.626;9.906;2023-03-01T05:52:17;2.40;99.90
14893;DHT22;7538;53.626;9.906;2023-03-01T05:54:44;2.40;99.90
14893;DHT22;7538;53.626;9.906;2023-03-01T05:57:11;2.40;99.90
14893;DHT22;7538;53.626;9.906;2023-03-01T05:59:38;2.50;99.90
14893;DHT22;7538;53.626;9.906;2023-03-01T06:02:05;2.70;99.90
14893;DHT22;7538;53.626;9.906;2023-03-01T06:04:33;2.40;99.90
14893;DHT22;7538;53.626;9.906;2023-03-01T06:06:59;2.40;99.90
14893;DHT22;7538;53.626;9.906;2023-03-01T06:09:26;2.40;99.90
14893;DHT22;7538;53.626;9.906;2023-03-01T06:11:53;2.40;99.90
14893;DHT22;7538;53.626;9.906;2023-03-01T06:14:20;2.30;99.90
14893;DHT22;7538;53.626;9.906;2023-03-01T06:16:46;2.30;99.90
14893;DHT22;7538;53.626;9.906;2023-03-01T06:19:13;2.30;99.90
14893;DHT22;7538;53.626;9.906;2023-03-01T06:21:41;5.50;99.90
14893;DHT22;7538;53.626;9.906;2023-03-01T06:24:08;2.30;99.90
14893;DHT22;7538;53.626;9.906;2023-03-01T06:26:35;2.20;99.90
14893;DHT22;7538;53.626;9.906;2023-03-01T06:29:01;2.20;99.90
14893;DHT22;7538;53.626;9.906;2023-03-01T06:31:28;2.30;99.90
14893;DHT22;7538;53.626;9.906;2023-03-01T06:33:55;2.30;99.90
14893;DHT22;7538;53.626;9.906;2023-03-01T06:36:22;2.30;99.90
14893;DHT22;7538;53.626;9.906;2023-03-01T06:38:50;2.40;99.90
14893;DHT22;7538;53.626;9.906;2023-03-01T06:41:17;2.40;99.90
14893;DHT22;7538;53.626;9.906;2023-03-01T06:43:44;2.40;99.90
14893;DHT22;7538;53.626;9.906;2023-03-01T06:46:11;2.40;99.90
14893;DHT22;7538;53.626;9.906;2023-03-01T06:48:37;2.50;99.90
14893;DHT22;7538;53.626;9.906;2023-03-01T06:51:04;2.50;99.90
14893;DHT22;7538;53.626;9.906;2023-03-01T06:53:31;2.60;99.90
14893;DHT22;7538;53.626;9.906;2023-03-01T06:55:59;2.60;99.90
14893;DHT22;7538;53.626;9.906;2023-03-01T06:58:26;2.70;99.90
14893;DHT22;7538;53.626;9.906;2023-03-01T07:00:53;2.80;99.90
14893;DHT22;7538;53.626;9.906;2023-03-01T07:03:20;2.90;99.90
14893;DHT22;7538;53.626;9.906;2023-03-01T07:05:48;3.00;99.90
14893;DHT22;7538;53.626;9.906;2023-03-01T07:08:17;3.10;99.90
14893;DHT22;7538;53.626;9.906;2023-03-01T07:10:43;3.10;99.90
14893;DHT22;7538;53.626;9.906;2023-03-01T07:13:12;3.20;99.90
14893;DHT22;7538;53.626;9.906;2023-03-01T07:15:40;3.30;99.90
14893;DHT22;7538;53.626;9.906;2023-03-01T07:18:07;3.40;99.90
14893;DHT22;7538;53.626;9.906;2023-03-01T07:20:34;3.60;99.90
14893;DHT22;7538;53.626;9.906;2023-03-01T07:23:01;3.60;99.90
14893;DHT22;7538;53.626;9.906;2023-03-01T07:25:28;3.60;99.90
14893;DHT22;7538;53.626;9.906;2023-03-01T07:27:55;3.70;99.90
14893;DHT22;7538;53.626;9.906;2023-03-01T07:30:23;3.80;99.90
14893;DHT22;7538;53.626;9.906;2023-03-01T07:32:51;4.00;99.90
14893;DHT22;7538;53.626;9.906;2023-03-01T07:35:18;4.00;99.90
14893;DHT22;7538;53.626;9.906;2023-03-01T07:37:45;4.10;99.90
14893;DHT22;7538;53.626;9.906;2023-03-01T07:40:12;4.30;99.90
14893;DHT22;7538;53.626;9.906;2023-03-01T07:42:39;4.40;99.90
14893;DHT22;7538;53.626;9.906;2023-03-01T07:45:07;4.60;99.90
14893;DHT22;7538;53.626;9.906;2023-03-01T07:47:35;4.70;99.90
14893;DHT22;7538;53.626;9.906;2023-03-01T07:50:03;5.00;99.90
14893;DHT22;7538;53.626;9.906;2023-03-01T07:52:30;5.00;99.90
14893;DHT22;7538;53.626;9.906;2023-03-01T07:54:57;5.10;99.90
14893;DHT22;7538;53.626;9.906;2023-03-01T07:57:24;5.40;99.90
14893;DHT22;7538;53.626;9.906;2023-03-01T07:59:51;5.60;99.90
14893;DHT22;7538;53.626;9.906;2023-03-01T08:02:18;5.80;99.90
14893;DHT22;7538;53.626;9.906;2023-03-01T08:04:46;6.20;99.90
14893;DHT22;7538;53.626;9.906;2023-03-01T08:07:13;6.30;99.60
14893;DHT22;7538;53.626;9.906;2023-03-01T08:09:40;6.50;99.30
14893;DHT22;7538;53.626;9.906;2023-03-01T08:12:06;6.60;99.10
14893;DHT22;7538;53.626;9.906;2023-03-01T08:14:33;6.60;98.70
14893;DHT22;7538;53.626;9.906;2023-03-01T08:17:00;6.50;98.70
14893;DHT22;7538;53.626;9.906;2023-03-01T08:19:28;6.50;98.80
14893;DHT22;7538;53.626;9.906;2023-03-01T08:21:56;6.50;98.90
14893;DHT22;7538;53.626;9.906;2023-03-01T08:24:25;6.60;98.70
14893;DHT22;7538;53.626;9.906;2023-03-01T08:26:52;6.80;98.70
14893;DHT22;7538;53.626;9.906;2023-03-01T08:29:19;6.90;98.60
14893;DHT22;7538;53.626;9.906;2023-03-01T08:31:46;6.90;98.50
14893;DHT22;7538;53.626;9.906;2023-03-01T08:34:15;7.00;98.50
14893;DHT22;7538;53.626;9.906;2023-03-01T08:36:43;6.90;98.30
14893;DHT22;7538;53.626;9.906;2023-03-01T08:39:13;6.90;98.50
14893;DHT22;7538;53.626;9.906;2023-03-01T08:41:41;6.90;98.50
14893;DHT22;7538;53.626;9.906;2023-03-01T08:44:09;6.80;98.60
14893;DHT22;7538;53.626;9.906;2023-03-01T08:46:38;6.80;98.60
14893;DHT22;7538;53.626;9.906;2023-03-01T08:49:06;6.70;98.90
14893;DHT22;7538;53.626;9.906;2023-03-01T08:51:33;6.60;99.20
14893;DHT22;7538;53.626;9.906;2023-03-01T08:54:02;6.40;99.50
14893;DHT22;7538;53.626;9.906;2023-03-01T08:56:30;6.10;99.90
14893;DHT22;7538;53.626;9.906;2023-03-01T08:58:57;6.00;99.90
14893;DHT22;7538;53.626;9.906;2023-03-01T09:01:24;5.80;99.90
14893;DHT22;7538;53.626;9.906;2023-03-01T09:03:51;5.90;99.90
14893;DHT22;7538;53.626;9.906;2023-03-01T09:06:18;5.90;99.90
14893;DHT22;7538;53.626;9.906;2023-03-01T09:08:46;5.90;99.90
14893;DHT22;7538;53.626;9.906;2023-03-01T09:11:15;6.00;99.90
14893;DHT22;7538;53.626;9.906;2023-03-01T09:13:43;6.30;99.90
14893;DHT22;7538;53.626;9.906;2023-03-01T09:16:11;6.40;99.90
14893;DHT22;7538;53.626;9.906;2023-03-01T09:18:38;6.60;99.90
14893;DHT22;7538;53.626;9.906;2023-03-01T09:21:07;6.70;99.90
14893;DHT22;7538;53.626;9.906;2023-03-01T09:23:34;6.80;99.90
14893;DHT22;7538;53.626;9.906;2023-03-01T09:26:04;6.70;99.90
14893;DHT22;7538;53.626;9.906;2023-03-01T09:28:31;6.60;99.90
14893;DHT22;7538;53.626;9.906;2023-03-01T09:31:00;6.50;99.90
14893;DHT22;7538;53.626;9.906;2023-03-01T09:33:27;6.70;99.90
14893;DHT22;7538;53.626;9.906;2023-03-01T09:35:57;6.70;99.90
14893;DHT22;7538;53.626;9.906;2023-03-01T09:38:23;6.90;99.90
14893;DHT22;7538;53.626;9.906;2023-03-01T09:40:50;7.00;99.90
14893;DHT22;7538;53.626;9.906;2023-03-01T09:43:23;7.00;99.90
14893;DHT22;7538;53.626;9.906;2023-03-01T09:45:53;7.10;99.90
14893;DHT22;7538;53.626;9.906;2023-03-01T09:48:26;7.10;99.90
14893;DHT22;7538;53.626;9.906;2023-03-01T09:50:53;7.00;99.90
14893;DHT22;7538;53.626;9.906;2023-03-01T09:53:21;6.80;99.90
14893;DHT22;7538;53.626;9.906;2023-03-01T09:55:52;6.80;99.90
14893;DHT22;7538;53.626;9.906;2023-03-01T09:58:37;7.00;99.90
14893;DHT22;7538;53.626;9.906;2023-03-01T10:01:16;7.10;99.90
14893;DHT22;7538;53.626;9.906;2023-03-01T10:04:00;7.40;99.90
14893;DHT22;7538;53.626;9.906;2023-03-01T10:06:28;7.40;99.90
14893;DHT22;7538;53.626;9.906;2023-03-01T10:08:57;7.30;99.90
14893;DHT22;7538;53.626;9.906;2023-03-01T10:11:28;7.20;99.90
14893;DHT22;7538;53.626;9.906;2023-03-01T10:14:01;7.60;99.90
14893;DHT22;7538;53.626;9.906;2023-03-01T10:16:37;7.90;99.90
14893;DHT22;7538;53.626;9.906;2023-03-01T10:19:12;11.10;99.90
14893;DHT22;7538;53.626;9.906;2023-03-01T10:21:44;8.40;99.90
14893;DHT22;7538;53.626;9.906;2023-03-01T10:24:13;9.20;99.90
14893;DHT22;7538;53.626;9.906;2023-03-01T10:26:47;7.80;98.20
14893;DHT22;7538;53.626;9.906;2023-03-01T10:29:15;9.90;97.90
14893;DHT22;7538;53.626;9.906;2023-03-01T10:31:43;9.80;97.30
14893;DHT22;7538;53.626;9.906;2023-03-01T10:34:14;9.70;97.50
14893;DHT22;7538;53.626;9.906;2023-03-01T10:36:43;9.70;97.80
14893;DHT22;7538;53.626;9.906;2023-03-01T10:39:14;9.50;97.50
14893;DHT22;7538;53.626;9.906;2023-03-01T10:41:55;9.00;98.10
14893;DHT22;7538;53.626;9.906;2023-03-01T10:44:39;8.90;99.10
14893;DHT22;7538;53.626;9.906;2023-03-01T10:47:14;8.80;98.90
14893;DHT22;7538;53.626;9.906;2023-03-01T10:49:54;8.90;99.00
14893;DHT22;7538;53.626;9.906;2023-03-01T10:52:23;8.50;99.00
14893;DHT22;7538;53.626;9.906;2023-03-01T10:54:53;8.40;99.70
14893;DHT22;7538;53.626;9.906;2023-03-01T10:57:35;8.10;99.90
14893;DHT22;7538;53.626;9.906;2023-03-01T11:00:20;8.00;99.90
14893;DHT22;7538;53.626;9.906;2023-03-01T11:02:49;7.90;99.90
14893;DHT22;7538;53.626;9.906;2023-03-01T11:05:20;4.70;99.90
14893;DHT22;7538;53.626;9.906;2023-03-01T11:07:50;7.40;99.90
14893;DHT22;7538;53.626;9.906;2023-03-01T11:10:19;7.30;99.90
14893;DHT22;7538;53.626;9.906;2023-03-01T11:12:46;9.70;99.90
14893;DHT22;7538;53.626;9.906;2023-03-01T11:15:24;7.30;99.90
14893;DHT22;7538;53.626;9.906;2023-03-01T11:17:51;7.10;99.90
14893;DHT22;7538;53.626;9.906;2023-03-01T11:20:25;7.20;99.90
14893;DHT22;7538;53.626;9.906;2023-03-01T11:22:55;7.40;99.90
14893;DHT22;7538;53.626;9.906;2023-03-01T11:25:25;7.50;99.90
14893;DHT22;7538;53.626;9.906;2023-03-01T11:27:53;7.50;99.90
14893;DHT22;7538;53.626;9.906;2023-03-01T11:30:24;7.60;99.90
14893;DHT22;7538;53.626;9.906;2023-03-01T11:33:03;7.80;99.90
14893;DHT22;7538;53.626;9.906;2023-03-01T11:35:32;7.90;99.90
14893;DHT22;7538;53.626;9.906;2023-03-01T11:38:14;8.00;99.90
14893;DHT22;7538;53.626;9.906;2023-03-01T11:40:46;8.10;99.90
14893;DHT22;7538;53.626;9.906;2023-03-01T11:43:21;8.10;99.90
14893;DHT22;7538;53.626;9.906;2023-03-01T11:46:31;8.00;99.90
14893;DHT22;7538;53.626;9.906;2023-03-01T11:49:16;7.90;99.90
14893;DHT22;7538;53.626;9.906;2023-03-01T11:51:55;8.10;99.90
14893;DHT22;7538;53.626;9.906;2023-03-01T11:54:32;8.00;99.90
14893;DHT22;7538;53.626;9.906;2023-03-01T11:57:08;7.90;99.90
14893;DHT22;7538;53.626;9.906;2023-03-01T11:59:59;7.90;99.90
14893;DHT22;7538;53.626;9.906;2023-03-01T12:06:02;10.00;99.90
14893;DHT22;7538;53.626;9.906;2023-03-01T12:08:38;8.10;99.90
14893;DHT22;7538;53.626;9.906;2023-03-01T12:11:17;8.20;99.90
14893;DHT22;7538;53.626;9.906;2023-03-01T12:14:18;7.90;99.90
14893;DHT22;7538;53.626;9.906;2023-03-01T12:17:04;7.90;99.90
14893;DHT22;7538;53.626;9.906;2023-03-01T12:20:01;7.70;99.90
14893;DHT22;7538;53.626;9.906;2023-03-01T12:22:31;7.60;99.90
14893;DHT22;7538;53.626;9.906;2023-03-01T12:28:11;7.60;99.90
14893;DHT22;7538;53.626;9.906;2023-03-01T12:30:53;7.00;99.90
14893;DHT22;7538;53.626;9.906;2023-03-01T12:33:29;7.50;99.90
14893;DHT22;7538;53.626;9.906;2023-03-01T12:36:29;7.60;99.90
14893;DHT22;7538;53.626;9.906;2023-03-01T12:39:06;7.70;99.90
14893;DHT22;7538;53.626;9.906;2023-03-01T12:41:46;5.30;99.90
14893;DHT22;7538;53.626;9.906;2023-03-01T12:44:33;7.60;99.90
14893;DHT22;7538;53.626;9.906;2023-03-01T12:47:24;7.60;99.90
14893;DHT22;7538;53.626;9.906;2023-03-01T12:49:56;7.50;99.90
14893;DHT22;7538;53.626;9.906;2023-03-01T12:52:30;7.60;99.90
14893;DHT22;7538;53.626;9.906;2023-03-01T12:55:01;7.70;99.90
14893;DHT22;7538;53.626;9.906;2023-03-01T12:57:34;7.70;99.90
14893;DHT22;7538;53.626;9.906;2023-03-01T13:00:17;7.90;99.90
14893;DHT22;7538;53.626;9.906;2023-03-01T13:02:52;7.80;99.90
14893;DHT22;7538;53.626;9.906;2023-03-01T13:05:29;7.70;99.90
14893;DHT22;7538;53.626;9.906;2023-03-01T13:08:03;7.70;99.90
14893;DHT22;7538;53.626;9.906;2023-03-01T13:10:35;7.60;99.90
14893;DHT22;7538;53.626;9.906;2023-03-01T13:13:18;7.70;99.90
14893;DHT22;7538;53.626;9.906;2023-03-01T13:15:45;7.80;99.90
14893;DHT22;7538;53.626;9.906;2023-03-01T13:18:30;7.80;99.90
14893;DHT22;7538;53.626;9.906;2023-03-01T13:20:59;7.80;99.90
14893;DHT22;7538;53.626;9.906;2023-03-01T13:23:30;7.70;99.90
14893;DHT22;7538;53.626;9.906;2023-03-01T13:26:03;7.60;99.90
14893;DHT22;7538;53.626;9.906;2023-03-01T13:28:47;7.60;99.90
14893;DHT22;7538;53.626;9.906;2023-03-01T13:37:34;7.50;99.90
14893;DHT22;7538;53.626;9.906;2023-03-01T13:40:56;7.60;99.90
14893;DHT22;7538;53.626;9.906;2023-03-01T13:42:53;7.60;99.90
14893;DHT22;7538;53.626;9.906;2023-03-01T13:45:26;7.70;99.90
14893;DHT22;7538;53.626;9.906;2023-03-01T13:48:02;7.80;99.90
14893;DHT22;7538;53.626;9.906;2023-03-01T13:50:35;7.80;99.90
14893;DHT22;7538;53.626;9.906;2023-03-01T13:53:05;7.80;99.90
14893;DHT22;7538;53.626;9.906;2023-03-01T13:55:37;7.90;99.90
14893;DHT22;7538;53.626;9.906;2023-03-01T13:58:19;7.90;99.90
14893;DHT22;7538;53.626;9.906;2023-03-01T14:00:55;7.80;99.90
14893;DHT22;7538;53.626;9.906;2023-03-01T14:03:22;7.70;99.90
14893;DHT22;7538;53.626;9.906;2023-03-01T14:06:04;7.80;99.90
14893;DHT22;7538;53.626;9.906;2023-03-01T14:08:34;7.70;99.90
14893;DHT22;7538;53.626;9.906;2023-03-01T14:14:24;7.60;99.90
14893;DHT22;7538;53.626;9.906;2023-03-01T14:17:03;7.60;99.90
14893;DHT22;7538;53.626;9.906;2023-03-01T14:19:34;7.60;99.90
14893;DHT22;7538;53.626;9.906;2023-03-01T14:22:10;7.90;99.90
14893;DHT22;7538;53.626;9.906;2023-03-01T14:24:47;7.60;99.90
14893;DHT22;7538;53.626;9.906;2023-03-01T14:27:14;7.60;99.90
14893;DHT22;7538;53.626;9.906;2023-03-01T14:29:42;7.70;99.90
14893;DHT22;7538;53.626;9.906;2023-03-01T14:32:12;7.50;99.90
14893;DHT22;7538;53.626;9.906;2023-03-01T14:34:44;7.60;99.90
14893;DHT22;7538;53.626;9.906;2023-03-01T14:37:19;7.60;99.90
14893;DHT22;7538;53.626;9.906;2023-03-01T14:39:46;7.90;99.90
14893;DHT22;7538;53.626;9.906;2023-03-01T14:42:14;7.80;99.90
14893;DHT22;7538;53.626;9.906;2023-03-01T14:44:43;5.30;99.90
14893;DHT22;7538;53.626;9.906;2023-03-01T14:47:15;7.60;99.90
14893;DHT22;7538;53.626;9.906;2023-03-01T14:49:43;7.60;99.90
14893;DHT22;7538;53.626;9.906;2023-03-01T14:52:18;7.70;99.90
14893;DHT22;7538;53.626;9.906;2023-03-01T14:54:48;7.70;99.90
14893;DHT22;7538;53.626;9.906;2023-03-01T14:57:17;7.70;99.90
14893;DHT22;7538;53.626;9.906;2023-03-01T14:59:45;7.80;99.90
14893;DHT22;7538;53.626;9.906;2023-03-01T15:02:19;7.80;99.90
14893;DHT22;7538;53.626;9.906;2023-03-01T15:04:49;7.90;99.90
14893;DHT22;7538;53.626;9.906;2023-03-01T15:07:17;7.90;99.90
14893;DHT22;7538;53.626;9.906;2023-03-01T15:09:45;7.80;99.90
14893;DHT22;7538;53.626;9.906;2023-03-01T15:12:35;7.80;99.90
14893;DHT22;7538;53.626;9.906;2023-03-01T15:15:33;7.80;99.90
14893;DHT22;7538;53.626;9.906;2023-03-01T15:18:04;7.80;99.90
14893;DHT22;7538;53.626;9.906;2023-03-01T15:20:33;7.80;99.90
14893;DHT22;7538;53.626;9.906;2023-03-01T15:23:02;7.80;99.90
14893;DHT22;7538;53.626;9.906;2023-03-01T15:25:31;7.70;99.90
14893;DHT22;7538;53.626;9.906;2023-03-01T15:28:01;7.70;99.90
14893;DHT22;7538;53.626;9.906;2023-03-01T15:30:31;7.70;99.90
14893;DHT22;7538;53.626;9.906;2023-03-01T15:33:27;7.70;99.90
14893;DHT22;7538;53.626;9.906;2023-03-01T15:35:56;7.60;99.90
14893;DHT22;7538;53.626;9.906;2023-03-01T15:38:28;7.60;99.90
14893;DHT22;7538;53.626;9.906;2023-03-01T15:40:55;7.50;99.90
14893;DHT22;7538;53.626;9.906;2023-03-01T15:43:43;7.50;99.90
14893;DHT22;7538;53.626;9.906;2023-03-01T15:46:17;7.60;99.90
14893;DHT22;7538;53.626;9.906;2023-03-01T15:48:47;7.50;99.90
14893;DHT22;7538;53.626;9.906;2023-03-01T15:51:16;7.30;99.90
14893;DHT22;7538;53.626;9.906;2023-03-01T15:53:47;7.20;99.90
14893;DHT22;7538;53.626;9.906;2023-03-01T15:56:15;7.20;99.90
14893;DHT22;7538;53.626;9.906;2023-03-01T15:58:42;7.20;99.90
14893;DHT22;7538;53.626;9.906;2023-03-01T16:01:11;7.10;99.90
14893;DHT22;7538;53.626;9.906;2023-03-01T16:03:39;7.00;99.90
14893;DHT22;7538;53.626;9.906;2023-03-01T16:06:09;7.10;99.90
14893;DHT22;7538;53.626;9.906;2023-03-01T16:08:36;7.10;99.90
14893;DHT22;7538;53.626;9.906;2023-03-01T16:11:03;7.00;99.90
14893;DHT22;7538;53.626;9.906;2023-03-01T16:13:31;6.90;99.90
14893;DHT22;7538;53.626;9.906;2023-03-01T16:15:58;6.90;99.90
14893;DHT22;7538;53.626;9.906;2023-03-01T16:18:25;6.90;99.90
14893;DHT22;7538;53.626;9.906;2023-03-01T16:20:52;6.90;99.90
14893;DHT22;7538;53.626;9.906;2023-03-01T16:23:20;9.50;99.90
14893;DHT22;7538;53.626;9.906;2023-03-01T16:25:50;6.70;99.90
14893;DHT22;7538;53.626;9.906;2023-03-01T16:28:17;6.80;99.90
14893;DHT22;7538;53.626;9.906;2023-03-01T16:30:46;6.70;99.90
14893;DHT22;7538;53.626;9.906;2023-03-01T16:33:14;6.80;99.90
14893;DHT22;7538;53.626;9.906;2023-03-01T16:35:41;6.80;99.90
14893;DHT22;7538;53.626;9.906;2023-03-01T16:38:08;6.70;99.90